createdAt,value
2018-07-02T00:03:52.720Z,0.90
2018-07-02T00:08:47.936Z,1.10
2018-07-02T00:13:43.149Z,0.77
2018-07-02T00:18:38.301Z,1.20
2018-07-02T00:23:33.613Z,0.83
2018-07-02T00:28:28.619Z,1.00
2018-07-02T00:33:23.803Z,1.13
2018-07-02T00:38:36.000Z,1.10
2018-07-02T00:44:29.792Z,1.00
2018-07-02T00:49:39.529Z,1.17
2018-07-02T00:54:34.719Z,1.10
2018-07-02T00:59:29.979Z,0.90
2018-07-02T01:04:25.668Z,0.80
2018-07-02T01:09:25.109Z,0.90
2018-07-02T01:14:22.361Z,1.20
2018-07-02T01:19:42.617Z,1.17
2018-07-02T01:24:39.531Z,1.10
2018-07-02T01:29:37.124Z,1.30
2018-07-02T01:39:44.762Z,0.93
2018-07-02T01:46:20.629Z,1.03
2018-07-02T01:51:16.580Z,1.03
2018-07-02T02:06:53.868Z,1.10
2018-07-02T02:11:50.561Z,1.10
2018-07-02T02:16:46.561Z,1.20
2018-07-02T02:22:12.547Z,1.10
2018-07-02T02:27:07.743Z,1.20
2018-07-02T02:32:30.662Z,1.20
2018-07-02T02:37:27.954Z,1.20
2018-07-02T02:42:23.044Z,1.07
2018-07-02T02:47:18.351Z,1.20
2018-07-02T02:52:14.608Z,1.00
2018-07-02T02:57:09.700Z,1.00
2018-07-02T03:02:54.090Z,1.30
2018-07-02T03:07:49.387Z,1.10
2018-07-02T03:12:44.809Z,1.00
2018-07-02T03:17:41.746Z,1.00
2018-07-02T03:22:36.938Z,1.17
2018-07-02T03:28:23.053Z,1.27
2018-07-02T03:33:43.526Z,1.33
2018-07-02T03:38:38.561Z,1.00
2018-07-02T03:43:34.260Z,1.20
2018-07-02T03:48:31.465Z,1.10
2018-07-02T03:58:54.096Z,1.30
2018-07-02T04:04:06.036Z,0.97
2018-07-02T04:09:02.251Z,0.97
2018-07-02T04:13:57.483Z,1.30
2018-07-02T04:18:57.668Z,1.10
2018-07-02T04:23:54.641Z,1.10
2018-07-02T04:28:49.963Z,1.20
2018-07-02T04:33:59.619Z,1.10
2018-07-02T04:39:26.077Z,1.37
2018-07-02T04:44:21.152Z,1.20
2018-07-02T04:49:15.950Z,0.93
2018-07-02T04:54:12.800Z,1.13
2018-07-02T04:59:07.782Z,1.30
2018-07-02T05:04:02.941Z,1.07
2018-07-02T05:08:57.862Z,1.13
2018-07-02T05:13:52.601Z,1.20
2018-07-02T05:18:47.375Z,1.33
2018-07-02T05:23:42.637Z,1.40
2018-07-02T05:28:37.797Z,1.10
2018-07-02T05:35:28.515Z,1.40
2018-07-02T05:40:32.193Z,1.37
2018-07-02T05:45:28.895Z,1.20
2018-07-02T05:50:25.233Z,1.20
2018-07-02T05:55:21.202Z,1.27
2018-07-02T06:01:16.288Z,1.33
2018-07-02T06:06:16.589Z,1.20
2018-07-02T06:11:33.103Z,1.30
2018-07-02T06:16:29.050Z,1.30
2018-07-02T06:21:23.917Z,1.43
2018-07-02T06:26:18.872Z,1.77
2018-07-02T06:31:13.670Z,1.13
2018-07-02T06:36:08.863Z,1.07
2018-07-02T07:03:15.236Z,1.40
2018-07-02T07:08:10.555Z,1.40
2018-07-02T07:13:05.769Z,0.93
2018-07-02T07:18:01.108Z,1.50
2018-07-02T07:22:56.833Z,1.67
2018-07-02T07:27:51.786Z,1.00
2018-07-02T07:32:46.678Z,1.33
2018-07-02T07:37:59.986Z,1.53
2018-07-02T07:42:56.367Z,1.50
2018-07-02T07:47:51.350Z,1.30
2018-07-02T07:52:47.235Z,1.40
2018-07-02T07:57:42.920Z,1.23
2018-07-02T08:02:37.823Z,1.20
2018-07-02T08:07:32.725Z,1.57
2018-07-02T08:12:27.704Z,1.50
2018-07-02T08:17:22.450Z,1.12
2018-07-02T08:22:17.747Z,1.30
2018-07-02T08:27:15.424Z,1.50
2018-07-02T08:32:23.934Z,1.37
2018-07-02T08:37:18.702Z,1.60
2018-07-02T08:42:13.436Z,1.40
2018-07-02T08:47:08.535Z,1.60
2018-07-02T08:52:03.332Z,1.50
2018-07-02T08:56:58.052Z,1.47
2018-07-02T09:01:55.171Z,1.55
2018-07-02T09:06:52.862Z,1.50
2018-07-02T09:11:47.642Z,1.65
2018-07-02T09:16:43.018Z,1.75
2018-07-02T09:26:52.956Z,1.65
2018-07-02T09:31:47.923Z,1.77
2018-07-02T09:36:43.785Z,1.60
2018-07-02T09:41:39.703Z,1.55
2018-07-02T09:46:34.432Z,1.70
2018-07-02T09:51:29.560Z,1.92
2018-07-02T09:56:24.418Z,1.40
2018-07-02T10:01:19.483Z,1.62
2018-07-02T10:06:14.350Z,1.70
2018-07-02T10:11:09.385Z,1.80
2018-07-02T10:16:04.269Z,1.45
2018-07-02T10:20:59.567Z,1.98
2018-07-02T10:25:54.629Z,1.80
2018-07-02T10:30:49.454Z,2.00
2018-07-02T10:35:44.386Z,1.75
2018-07-02T10:40:41.045Z,1.90
2018-07-02T10:45:35.959Z,2.10
2018-07-02T10:55:50.975Z,1.90
2018-07-02T11:00:46.000Z,2.40
2018-07-02T11:05:40.936Z,2.00
2018-07-02T11:10:35.810Z,2.47
2018-07-02T11:15:30.766Z,1.98
2018-07-02T11:20:25.766Z,2.00
2018-07-02T11:25:20.644Z,2.05
2018-07-02T11:30:15.585Z,2.10
2018-07-02T11:35:10.806Z,1.72
2018-07-02T11:40:06.167Z,2.10
2018-07-02T11:45:01.134Z,2.27
2018-07-02T11:49:55.992Z,1.82
2018-07-02T11:54:50.983Z,2.10
2018-07-02T11:59:46.520Z,1.90
2018-07-02T12:04:48.554Z,1.80
2018-07-02T12:15:10.652Z,2.00
2018-07-02T12:20:06.076Z,2.00
2018-07-02T12:25:00.951Z,2.20
2018-07-02T12:29:57.332Z,2.05
2018-07-02T12:34:52.376Z,1.98
2018-07-02T12:39:47.358Z,2.40
2018-07-02T12:44:42.447Z,2.02
2018-07-02T12:49:37.379Z,2.12
2018-07-02T12:54:32.394Z,1.77
2018-07-02T12:59:27.545Z,2.00
2018-07-02T13:04:23.405Z,2.00
2018-07-02T13:09:18.379Z,2.05
2018-07-02T13:14:13.306Z,2.12
2018-07-02T13:19:09.348Z,2.10
2018-07-02T13:24:04.341Z,2.05
2018-07-02T13:28:59.350Z,2.10
2018-07-02T13:33:55.243Z,2.27
2018-07-02T13:38:50.568Z,2.20
2018-07-02T13:43:45.585Z,2.10
2018-07-02T13:48:42.559Z,2.12
2018-07-02T13:53:37.659Z,2.30
2018-07-02T13:58:32.802Z,2.20
2018-07-02T14:03:30.119Z,2.30
2018-07-02T14:14:03.641Z,2.10
2018-07-02T14:18:58.219Z,2.35
2018-07-02T14:23:52.840Z,2.12
2018-07-02T14:28:47.651Z,2.40
2018-07-02T14:33:42.254Z,2.20
2018-07-02T14:38:36.815Z,2.37
2018-07-02T14:43:31.402Z,2.60
2018-07-02T14:48:25.993Z,2.40
2018-07-02T14:53:20.613Z,2.37
2018-07-02T14:58:15.200Z,2.05
2018-07-02T15:03:09.832Z,2.72
2018-07-02T15:08:04.495Z,2.80
2018-07-02T15:12:59.087Z,2.50
2018-07-02T15:17:53.787Z,2.30
2018-07-02T15:22:48.459Z,2.30
2018-07-02T15:27:43.215Z,2.42
2018-07-02T15:32:37.829Z,2.40
2018-07-02T15:37:32.459Z,2.33
2018-07-02T15:42:27.125Z,2.25
2018-07-02T15:47:21.781Z,2.30
2018-07-02T15:52:16.109Z,2.40
2018-07-02T15:57:10.715Z,2.10
2018-07-02T16:02:05.437Z,2.33
2018-07-02T16:07:00.112Z,2.33
2018-07-02T16:11:54.730Z,2.10
2018-07-02T16:16:49.448Z,2.40
2018-07-02T16:21:44.132Z,2.50
2018-07-02T16:26:38.791Z,2.55
2018-07-02T16:31:33.436Z,2.27
2018-07-02T16:36:28.081Z,2.30
2018-07-02T16:41:22.714Z,2.47
2018-07-02T16:46:17.441Z,2.52
2018-07-02T16:51:12.006Z,2.40
2018-07-02T16:56:06.809Z,2.37
2018-07-02T17:01:01.475Z,2.22
2018-07-02T17:05:55.787Z,2.90
2018-07-02T17:10:50.414Z,2.50
2018-07-02T17:15:45.140Z,2.33
2018-07-02T17:20:39.765Z,2.40
2018-07-02T17:25:34.375Z,2.65
2018-07-02T17:30:29.008Z,2.75
2018-07-02T17:35:23.643Z,2.42
2018-07-02T17:40:18.215Z,2.47
2018-07-02T17:45:12.836Z,2.40
2018-07-02T17:50:07.715Z,2.80
2018-07-02T17:55:02.310Z,2.58
2018-07-02T17:59:56.927Z,2.80
2018-07-02T18:04:51.585Z,2.55
2018-07-02T18:09:46.204Z,2.83
2018-07-02T18:14:40.832Z,2.80
2018-07-02T18:19:35.535Z,4.58
2018-07-02T18:24:30.208Z,3.25
2018-07-02T18:29:24.828Z,8.20
2018-07-02T18:34:19.479Z,2.90
2018-07-02T18:39:14.228Z,3.27
2018-07-02T18:44:09.187Z,3.33
2018-07-02T18:49:03.537Z,3.10
2018-07-02T18:53:58.136Z,4.17
2018-07-02T18:58:52.859Z,4.05
2018-07-02T19:03:47.508Z,3.30
2018-07-02T19:08:42.224Z,3.42
2018-07-02T19:13:36.822Z,3.08
2018-07-02T19:23:26.375Z,3.70
2018-07-02T19:28:20.988Z,5.42
2018-07-02T19:33:15.637Z,4.60
2018-07-02T19:38:10.515Z,3.33
2018-07-02T19:43:05.156Z,2.83
2018-07-02T19:47:59.835Z,2.45
2018-07-02T19:52:54.504Z,2.42
2018-07-02T19:57:49.120Z,2.47
2018-07-02T20:02:43.824Z,2.40
2018-07-02T20:07:38.421Z,2.33
2018-07-02T20:12:33.201Z,2.50
2018-07-02T20:17:27.857Z,2.30
2018-07-02T20:22:22.480Z,2.25
2018-07-02T20:27:17.148Z,2.40
2018-07-02T20:32:11.772Z,2.30
2018-07-02T20:37:06.599Z,2.30
2018-07-02T20:42:01.281Z,2.33
2018-07-02T20:46:55.923Z,2.15
2018-07-02T20:51:50.570Z,2.30
2018-07-02T20:56:45.195Z,2.30
2018-07-02T21:01:39.919Z,2.33
2018-07-02T21:06:34.535Z,2.52
2018-07-02T21:11:29.177Z,2.20
2018-07-02T21:16:23.791Z,2.00
2018-07-02T21:21:18.684Z,2.20
2018-07-02T21:26:13.332Z,2.30
2018-07-02T21:31:07.969Z,2.22
2018-07-02T21:36:02.656Z,2.27
2018-07-02T21:40:58.435Z,2.77
2018-07-02T21:45:53.101Z,2.62
2018-07-02T21:50:47.732Z,2.58
2018-07-02T21:55:42.343Z,2.52
2018-07-02T22:00:37.781Z,2.95
2018-07-02T22:05:32.489Z,2.42
2018-07-02T22:10:26.816Z,2.87
2018-07-02T22:15:21.441Z,2.70
2018-07-02T22:20:16.072Z,3.25
2018-07-02T22:25:10.762Z,3.33
2018-07-02T22:30:05.478Z,2.70
2018-07-02T22:35:00.117Z,2.87
2018-07-02T22:39:54.767Z,2.80
2018-07-02T22:44:49.363Z,2.50
2018-07-02T22:49:43.998Z,2.80
2018-07-02T22:54:38.627Z,2.85
2018-07-02T22:59:33.276Z,2.98
2018-07-02T23:04:28.064Z,2.65
2018-07-02T23:09:23.833Z,2.33
2018-07-02T23:14:18.518Z,2.90
2018-07-02T23:19:13.104Z,2.70
2018-07-02T23:24:07.781Z,2.77
2018-07-02T23:29:02.358Z,3.15
2018-07-02T23:33:57.029Z,3.10
2018-07-02T23:38:51.637Z,2.77
2018-07-02T23:43:46.226Z,2.60
2018-07-02T23:48:40.884Z,2.70
2018-07-02T23:53:35.488Z,2.40
2018-07-02T23:58:30.199Z,2.83
